sensor_id;sensor_type;location;lat;lon;timestamp;P1;durP1;ratioP1;P2;durP2;ratioP2
6638;SDS011;3355;52.882;8.430;2023-03-12T00:00:01;5.33;;;1.80;;
6638;SDS011;3355;52.882;8.430;2023-03-12T00:02:32;3.83;;;1.80;;
6638;SDS011;3355;52.882;8.430;2023-03-12T00:04:58;2.47;;;1.40;;
6638;SDS011;3355;52.882;8.430;2023-03-12T00:07:25;3.80;;;1.80;;
6638;SDS011;3355;52.882;8.430;2023-03-12T00:09:52;3.57;;;1.93;;
6638;SDS011;3355;52.882;8.430;2023-03-12T00:12:18;3.13;;;1.77;;
6638;SDS011;3355;52.882;8.430;2023-03-12T00:14:45;4.10;;;1.90;;
6638;SDS011;3355;52.882;8.430;2023-03-12T00:17:13;4.47;;;1.47;;
6638;SDS011;3355;52.882;8.430;2023-03-12T00:19:40;3.97;;;1.90;;
6638;SDS011;3355;52.882;8.430;2023-03-12T00:22:06;5.23;;;1.83;;
6638;SDS011;3355;52.882;8.430;2023-03-12T00:24:33;4.57;;;2.17;;
6638;SDS011;3355;52.882;8.430;2023-03-12T00:27:00;2.90;;;1.70;;
6638;SDS011;3355;52.882;8.430;2023-03-12T00:29:26;3.90;;;2.10;;
6638;SDS011;3355;52.882;8.430;2023-03-12T00:31:53;9.53;;;2.40;;
6638;SDS011;3355;52.882;8.430;2023-03-12T00:34:21;5.03;;;2.37;;
6638;SDS011;3355;52.882;8.430;2023-03-12T00:36:47;5.77;;;1.83;;
6638;SDS011;3355;52.882;8.430;2023-03-12T00:39:14;4.40;;;2.27;;
6638;SDS011;3355;52.882;8.430;2023-03-12T00:41:40;3.83;;;2.43;;
6638;SDS011;3355;52.882;8.430;2023-03-12T00:44:07;4.20;;;1.90;;
6638;SDS011;3355;52.882;8.430;2023-03-12T00:46:34;4.50;;;2.37;;
6638;SDS011;3355;52.882;8.430;2023-03-12T00:49:00;5.53;;;2.30;;
6638;SDS011;3355;52.882;8.430;2023-03-12T00:51:28;3.80;;;2.53;;
6638;SDS011;3355;52.882;8.430;2023-03-12T00:53:55;4.73;;;2.13;;
6638;SDS011;3355;52.882;8.430;2023-03-12T00:56:22;5.13;;;2.30;;
6638;SDS011;3355;52.882;8.430;2023-03-12T00:58:50;4.17;;;2.17;;
6638;SDS011;3355;52.882;8.430;2023-03-12T01:01:16;4.67;;;2.17;;
6638;SDS011;3355;52.882;8.430;2023-03-12T01:03:43;4.13;;;2.60;;
6638;SDS011;3355;52.882;8.430;2023-03-12T01:06:10;4.17;;;2.40;;
6638;SDS011;3355;52.882;8.430;2023-03-12T01:08:38;3.20;;;1.83;;
6638;SDS011;3355;52.882;8.430;2023-03-12T01:11:05;18.33;;;2.97;;
6638;SDS011;3355;52.882;8.430;2023-03-12T01:13:32;3.03;;;1.93;;
6638;SDS011;3355;52.882;8.430;2023-03-12T01:15:58;3.70;;;2.10;;
6638;SDS011;3355;52.882;8.430;2023-03-12T01:18:25;3.93;;;2.33;;
6638;SDS011;3355;52.882;8.430;2023-03-12T01:20:52;3.10;;;1.83;;
6638;SDS011;3355;52.882;8.430;2023-03-12T01:23:18;3.27;;;2.00;;
6638;SDS011;3355;52.882;8.430;2023-03-12T01:25:46;3.90;;;2.10;;
6638;SDS011;3355;52.882;8.430;2023-03-12T01:28:13;4.20;;;2.37;;
6638;SDS011;3355;52.882;8.430;2023-03-12T01:30:40;5.27;;;1.90;;
6638;SDS011;3355;52.882;8.430;2023-03-12T01:33:06;5.07;;;2.13;;
6638;SDS011;3355;52.882;8.430;2023-03-12T01:35:34;3.60;;;2.00;;
6638;SDS011;3355;52.882;8.430;2023-03-12T01:38:03;3.93;;;2.10;;
6638;SDS011;3355;52.882;8.430;2023-03-12T01:40:31;4.63;;;2.37;;
6638;SDS011;3355;52.882;8.430;2023-03-12T01:43:19;3.70;;;2.83;;
6638;SDS011;3355;52.882;8.430;2023-03-12T01:46:02;4.47;;;1.97;;
6638;SDS011;3355;52.882;8.430;2023-03-12T01:48:33;5.80;;;2.90;;
6638;SDS011;3355;52.882;8.430;2023-03-12T01:51:02;4.93;;;2.47;;
6638;SDS011;3355;52.882;8.430;2023-03-12T01:53:30;3.47;;;2.10;;
6638;SDS011;3355;52.882;8.430;2023-03-12T01:55:57;4.67;;;2.30;;
6638;SDS011;3355;52.882;8.430;2023-03-12T01:58:26;5.10;;;2.73;;
6638;SDS011;3355;52.882;8.430;2023-03-12T02:00:53;3.77;;;1.80;;
6638;SDS011;3355;52.882;8.430;2023-03-12T02:03:20;3.03;;;1.87;;
6638;SDS011;3355;52.882;8.430;2023-03-12T02:05:49;4.33;;;2.40;;
6638;SDS011;3355;52.882;8.430;2023-03-12T02:08:17;3.60;;;2.20;;
6638;SDS011;3355;52.882;8.430;2023-03-12T02:10:44;4.03;;;1.83;;
6638;SDS011;3355;52.882;8.430;2023-03-12T02:13:11;5.20;;;2.40;;
6638;SDS011;3355;52.882;8.430;2023-03-12T02:15:39;5.37;;;2.00;;
6638;SDS011;3355;52.882;8.430;2023-03-12T02:18:07;3.83;;;2.27;;
6638;SDS011;3355;52.882;8.430;2023-03-12T02:20:35;4.00;;;2.30;;
6638;SDS011;3355;52.882;8.430;2023-03-12T02:23:05;4.83;;;2.60;;
6638;SDS011;3355;52.882;8.430;2023-03-12T02:25:36;4.10;;;2.20;;
6638;SDS011;3355;52.882;8.430;2023-03-12T02:28:06;3.63;;;2.33;;
6638;SDS011;3355;52.882;8.430;2023-03-12T02:30:34;5.10;;;2.30;;
6638;SDS011;3355;52.882;8.430;2023-03-12T02:33:04;3.80;;;2.10;;
6638;SDS011;3355;52.882;8.430;2023-03-12T02:35:31;5.83;;;2.70;;
6638;SDS011;3355;52.882;8.430;2023-03-12T02:37:58;4.27;;;2.30;;
6638;SDS011;3355;52.882;8.430;2023-03-12T02:40:25;5.20;;;2.00;;
6638;SDS011;3355;52.882;8.430;2023-03-12T02:42:56;4.57;;;2.40;;
6638;SDS011;3355;52.882;8.430;2023-03-12T02:45:23;5.20;;;2.50;;
6638;SDS011;3355;52.882;8.430;2023-03-12T02:47:51;7.20;;;2.17;;
6638;SDS011;3355;52.882;8.430;2023-03-12T02:50:17;5.47;;;2.20;;
6638;SDS011;3355;52.882;8.430;2023-03-12T02:52:44;3.43;;;2.17;;
6638;SDS011;3355;52.882;8.430;2023-03-12T02:55:11;7.47;;;2.93;;
6638;SDS011;3355;52.882;8.430;2023-03-12T02:57:37;3.60;;;2.30;;
6638;SDS011;3355;52.882;8.430;2023-03-12T03:00:06;3.60;;;2.10;;
6638;SDS011;3355;52.882;8.430;2023-03-12T03:02:36;6.03;;;2.53;;
6638;SDS011;3355;52.882;8.430;2023-03-12T03:05:02;4.63;;;2.30;;
6638;SDS011;3355;52.882;8.430;2023-03-12T03:07:29;3.90;;;2.50;;
6638;SDS011;3355;52.882;8.430;2023-03-12T03:09:56;5.17;;;2.70;;
6638;SDS011;3355;52.882;8.430;2023-03-12T03:12:27;4.70;;;2.77;;
6638;SDS011;3355;52.882;8.430;2023-03-12T03:14:54;3.70;;;2.30;;
6638;SDS011;3355;52.882;8.430;2023-03-12T03:17:23;4.63;;;2.60;;
6638;SDS011;3355;52.882;8.430;2023-03-12T03:19:50;5.33;;;2.73;;
6638;SDS011;3355;52.882;8.430;2023-03-12T03:22:16;7.00;;;2.67;;
6638;SDS011;3355;52.882;8.430;2023-03-12T03:24:43;5.00;;;3.07;;
6638;SDS011;3355;52.882;8.430;2023-03-12T03:27:10;4.90;;;2.77;;
6638;SDS011;3355;52.882;8.430;2023-03-12T03:29:37;7.60;;;2.70;;
6638;SDS011;3355;52.882;8.430;2023-03-12T03:32:04;3.00;;;2.17;;
6638;SDS011;3355;52.882;8.430;2023-03-12T03:34:33;4.87;;;2.40;;
6638;SDS011;3355;52.882;8.430;2023-03-12T03:37:00;5.83;;;3.13;;
6638;SDS011;3355;52.882;8.430;2023-03-12T03:39:27;4.40;;;2.17;;
6638;SDS011;3355;52.882;8.430;2023-03-12T03:41:53;3.47;;;2.13;;
6638;SDS011;3355;52.882;8.430;2023-03-12T03:44:20;5.83;;;2.30;;
6638;SDS011;3355;52.882;8.430;2023-03-12T03:46:48;4.80;;;2.60;;
6638;SDS011;3355;52.882;8.430;2023-03-12T03:49:14;4.60;;;2.30;;
6638;SDS011;3355;52.882;8.430;2023-03-12T03:51:43;2.83;;;1.93;;
6638;SDS011;3355;52.882;8.430;2023-03-12T03:54:09;4.27;;;1.93;;
6638;SDS011;3355;52.882;8.430;2023-03-12T03:56:36;4.87;;;2.40;;
6638;SDS011;3355;52.882;8.430;2023-03-12T03:59:03;3.43;;;2.53;;
6638;SDS011;3355;52.882;8.430;2023-03-12T04:01:30;5.73;;;2.10;;
6638;SDS011;3355;52.882;8.430;2023-03-12T04:03:56;4.97;;;2.20;;
6638;SDS011;3355;52.882;8.430;2023-03-12T04:06:23;6.73;;;2.87;;
6638;SDS011;3355;52.882;8.430;2023-03-12T04:08:51;3.93;;;2.40;;
6638;SDS011;3355;52.882;8.430;2023-03-12T04:11:19;4.13;;;2.40;;
6638;SDS011;3355;52.882;8.430;2023-03-12T04:13:46;5.70;;;3.03;;
6638;SDS011;3355;52.882;8.430;2023-03-12T04:16:14;7.33;;;2.93;;
6638;SDS011;3355;52.882;8.430;2023-03-12T04:18:41;3.67;;;2.30;;
6638;SDS011;3355;52.882;8.430;2023-03-12T04:21:08;4.90;;;2.70;;
6638;SDS011;3355;52.882;8.430;2023-03-12T04:23:36;5.07;;;2.83;;
6638;SDS011;3355;52.882;8.430;2023-03-12T04:26:05;6.07;;;3.20;;
6638;SDS011;3355;52.882;8.430;2023-03-12T04:28:31;3.73;;;2.63;;
6638;SDS011;3355;52.882;8.430;2023-03-12T04:30:59;5.93;;;2.90;;
6638;SDS011;3355;52.882;8.430;2023-03-12T04:33:27;4.50;;;2.83;;
6638;SDS011;3355;52.882;8.430;2023-03-12T04:35:55;5.03;;;3.63;;
6638;SDS011;3355;52.882;8.430;2023-03-12T04:38:22;7.50;;;3.60;;
6638;SDS011;3355;52.882;8.430;2023-03-12T04:40:56;8.70;;;3.13;;
6638;SDS011;3355;52.882;8.430;2023-03-12T04:43:25;7.27;;;3.60;;
6638;SDS011;3355;52.882;8.430;2023-03-12T04:45:52;5.87;;;2.83;;
6638;SDS011;3355;52.882;8.430;2023-03-12T04:48:18;4.70;;;3.13;;
6638;SDS011;3355;52.882;8.430;2023-03-12T04:50:45;5.63;;;3.50;;
6638;SDS011;3355;52.882;8.430;2023-03-12T04:53:11;6.00;;;3.13;;
6638;SDS011;3355;52.882;8.430;2023-03-12T04:55:38;5.90;;;3.60;;
6638;SDS011;3355;52.882;8.430;2023-03-12T04:58:05;7.70;;;3.50;;
6638;SDS011;3355;52.882;8.430;2023-03-12T05:00:33;4.40;;;3.43;;
6638;SDS011;3355;52.882;8.430;2023-03-12T05:02:59;5.77;;;3.43;;
6638;SDS011;3355;52.882;8.430;2023-03-12T05:05:26;5.03;;;3.60;;
6638;SDS011;3355;52.882;8.430;2023-03-12T05:07:53;6.47;;;4.00;;
6638;SDS011;3355;52.882;8.430;2023-03-12T05:10:19;3.83;;;2.60;;
6638;SDS011;3355;52.882;8.430;2023-03-12T05:12:46;6.07;;;3.77;;
6638;SDS011;3355;52.882;8.430;2023-03-12T05:15:12;4.90;;;3.57;;
6638;SDS011;3355;52.882;8.430;2023-03-12T05:17:43;4.67;;;3.20;;
6638;SDS011;3355;52.882;8.430;2023-03-12T05:20:10;6.10;;;3.60;;
6638;SDS011;3355;52.882;8.430;2023-03-12T05:22:37;8.83;;;4.10;;
6638;SDS011;3355;52.882;8.430;2023-03-12T05:25:04;5.20;;;3.37;;
6638;SDS011;3355;52.882;8.430;2023-03-12T05:27:32;4.83;;;3.37;;
6638;SDS011;3355;52.882;8.430;2023-03-12T05:29:59;5.00;;;3.10;;
6638;SDS011;3355;52.882;8.430;2023-03-12T05:32:26;5.57;;;3.60;;
6638;SDS011;3355;52.882;8.430;2023-03-12T05:34:54;7.83;;;3.07;;
6638;SDS011;3355;52.882;8.430;2023-03-12T05:37:20;5.27;;;3.20;;
6638;SDS011;3355;52.882;8.430;2023-03-12T05:39:47;4.40;;;3.10;;
6638;SDS011;3355;52.882;8.430;2023-03-12T05:42:14;4.97;;;3.57;;
6638;SDS011;3355;52.882;8.430;2023-03-12T05:44:41;7.53;;;3.40;;
6638;SDS011;3355;52.882;8.430;2023-03-12T05:47:08;5.07;;;3.07;;
6638;SDS011;3355;52.882;8.430;2023-03-12T05:49:35;5.77;;;3.70;;
6638;SDS011;3355;52.882;8.430;2023-03-12T05:52:03;5.60;;;3.53;;
6638;SDS011;3355;52.882;8.430;2023-03-12T05:54:30;5.60;;;3.50;;
6638;SDS011;3355;52.882;8.430;2023-03-12T05:56:57;10.97;;;3.67;;
6638;SDS011;3355;52.882;8.430;2023-03-12T05:59:23;5.67;;;3.23;;
6638;SDS011;3355;52.882;8.430;2023-03-12T06:01:50;6.57;;;3.70;;
6638;SDS011;3355;52.882;8.430;2023-03-12T06:04:16;5.90;;;3.73;;
6638;SDS011;3355;52.882;8.430;2023-03-12T06:06:43;5.77;;;3.70;;
6638;SDS011;3355;52.882;8.430;2023-03-12T06:09:11;3.80;;;3.40;;
6638;SDS011;3355;52.882;8.430;2023-03-12T06:11:38;6.43;;;3.33;;
6638;SDS011;3355;52.882;8.430;2023-03-12T06:14:04;5.87;;;3.80;;
6638;SDS011;3355;52.882;8.430;2023-03-12T06:16:31;6.80;;;3.47;;
6638;SDS011;3355;52.882;8.430;2023-03-12T06:18:58;5.20;;;3.10;;
6638;SDS011;3355;52.882;8.430;2023-03-12T06:21:27;5.63;;;3.37;;
6638;SDS011;3355;52.882;8.430;2023-03-12T06:23:54;9.30;;;4.10;;
6638;SDS011;3355;52.882;8.430;2023-03-12T06:26:23;8.87;;;3.47;;
6638;SDS011;3355;52.882;8.430;2023-03-12T06:28:50;5.63;;;3.50;;
6638;SDS011;3355;52.882;8.430;2023-03-12T06:31:17;6.70;;;4.03;;
6638;SDS011;3355;52.882;8.430;2023-03-12T06:33:44;4.53;;;3.17;;
6638;SDS011;3355;52.882;8.430;2023-03-12T06:36:11;5.23;;;3.27;;
6638;SDS011;3355;52.882;8.430;2023-03-12T06:38:39;6.33;;;4.17;;
6638;SDS011;3355;52.882;8.430;2023-03-12T06:41:07;10.73;;;4.07;;
6638;SDS011;3355;52.882;8.430;2023-03-12T06:43:36;7.20;;;3.50;;
6638;SDS011;3355;52.882;8.430;2023-03-12T06:46:04;6.47;;;3.97;;
6638;SDS011;3355;52.882;8.430;2023-03-12T06:48:32;7.40;;;3.80;;
6638;SDS011;3355;52.882;8.430;2023-03-12T06:51:01;5.80;;;3.30;;
6638;SDS011;3355;52.882;8.430;2023-03-12T06:53:28;6.27;;;3.90;;
6638;SDS011;3355;52.882;8.430;2023-03-12T06:55:55;4.70;;;3.37;;
6638;SDS011;3355;52.882;8.430;2023-03-12T06:58:21;6.53;;;3.90;;
6638;SDS011;3355;52.882;8.430;2023-03-12T07:00:49;6.43;;;3.97;;
6638;SDS011;3355;52.882;8.430;2023-03-12T07:03:17;5.77;;;3.57;;
6638;SDS011;3355;52.882;8.430;2023-03-12T07:05:44;12.67;;;4.00;;
6638;SDS011;3355;52.882;8.430;2023-03-12T07:08:11;6.20;;;4.40;;
6638;SDS011;3355;52.882;8.430;2023-03-12T07:10:38;5.80;;;4.20;;
6638;SDS011;3355;52.882;8.430;2023-03-12T07:13:05;5.93;;;4.70;;
6638;SDS011;3355;52.882;8.430;2023-03-12T07:15:32;7.50;;;4.27;;
6638;SDS011;3355;52.882;8.430;2023-03-12T07:18:02;6.13;;;3.90;;
6638;SDS011;3355;52.882;8.430;2023-03-12T07:20:29;10.27;;;4.03;;
6638;SDS011;3355;52.882;8.430;2023-03-12T07:22:57;7.07;;;3.73;;
6638;SDS011;3355;52.882;8.430;2023-03-12T07:25:24;8.10;;;3.27;;
6638;SDS011;3355;52.882;8.430;2023-03-12T07:27:51;5.80;;;4.60;;
6638;SDS011;3355;52.882;8.430;2023-03-12T07:30:18;6.13;;;4.27;;
6638;SDS011;3355;52.882;8.430;2023-03-12T07:32:44;11.80;;;4.00;;
6638;SDS011;3355;52.882;8.430;2023-03-12T07:35:13;6.10;;;4.10;;
6638;SDS011;3355;52.882;8.430;2023-03-12T07:37:39;5.47;;;3.70;;
6638;SDS011;3355;52.882;8.430;2023-03-12T07:40:06;5.50;;;3.57;;
6638;SDS011;3355;52.882;8.430;2023-03-12T07:42:35;6.30;;;4.10;;
6638;SDS011;3355;52.882;8.430;2023-03-12T07:45:02;6.63;;;3.70;;
6638;SDS011;3355;52.882;8.430;2023-03-12T07:47:29;4.17;;;3.50;;
6638;SDS011;3355;52.882;8.430;2023-03-12T07:49:56;5.20;;;3.30;;
6638;SDS011;3355;52.882;8.430;2023-03-12T07:52:24;4.70;;;3.10;;
6638;SDS011;3355;52.882;8.430;2023-03-12T07:54:52;4.17;;;2.70;;
6638;SDS011;3355;52.882;8.430;2023-03-12T07:57:20;6.63;;;3.63;;
6638;SDS011;3355;52.882;8.430;2023-03-12T07:59:47;4.73;;;3.20;;
6638;SDS011;3355;52.882;8.430;2023-03-12T08:02:14;3.73;;;2.70;;
6638;SDS011;3355;52.882;8.430;2023-03-12T08:04:40;4.90;;;2.70;;
6638;SDS011;3355;52.882;8.430;2023-03-12T08:07:08;7.60;;;3.83;;
6638;SDS011;3355;52.882;8.430;2023-03-12T08:09:37;5.90;;;3.90;;
6638;SDS011;3355;52.882;8.430;2023-03-12T08:12:04;5.43;;;3.20;;
6638;SDS011;3355;52.882;8.430;2023-03-12T08:16:58;3.30;;;2.70;;
6638;SDS011;3355;52.882;8.430;2023-03-12T08:19:25;7.10;;;3.20;;
6638;SDS011;3355;52.882;8.430;2023-03-12T08:21:52;4.77;;;3.23;;
6638;SDS011;3355;52.882;8.430;2023-03-12T08:24:20;7.20;;;3.93;;
6638;SDS011;3355;52.882;8.430;2023-03-12T08:26:48;4.10;;;3.17;;
6638;SDS011;3355;52.882;8.430;2023-03-12T08:29:16;5.63;;;3.40;;
6638;SDS011;3355;52.882;8.430;2023-03-12T08:31:42;4.53;;;3.10;;
6638;SDS011;3355;52.882;8.430;2023-03-12T08:34:09;6.57;;;3.60;;
6638;SDS011;3355;52.882;8.430;2023-03-12T08:36:37;5.20;;;3.80;;
6638;SDS011;3355;52.882;8.430;2023-03-12T08:39:03;7.80;;;3.90;;
6638;SDS011;3355;52.882;8.430;2023-03-12T08:41:30;8.20;;;3.63;;
6638;SDS011;3355;52.882;8.430;2023-03-12T08:43:59;5.40;;;3.20;;
6638;SDS011;3355;52.882;8.430;2023-03-12T08:46:27;3.47;;;2.80;;
6638;SDS011;3355;52.882;8.430;2023-03-12T08:48:54;8.83;;;3.40;;
6638;SDS011;3355;52.882;8.430;2023-03-12T08:51:21;5.30;;;3.13;;
6638;SDS011;3355;52.882;8.430;2023-03-12T08:53:48;6.03;;;3.43;;
6638;SDS011;3355;52.882;8.430;2023-03-12T08:56:14;4.93;;;3.40;;
6638;SDS011;3355;52.882;8.430;2023-03-12T08:58:41;5.60;;;3.10;;
6638;SDS011;3355;52.882;8.430;2023-03-12T09:01:10;4.23;;;2.70;;
6638;SDS011;3355;52.882;8.430;2023-03-12T09:03:37;5.10;;;3.30;;
6638;SDS011;3355;52.882;8.430;2023-03-12T09:06:05;5.13;;;2.83;;
6638;SDS011;3355;52.882;8.430;2023-03-12T09:08:37;5.73;;;3.00;;
6638;SDS011;3355;52.882;8.430;2023-03-12T09:11:04;4.80;;;3.10;;
6638;SDS011;3355;52.882;8.430;2023-03-12T09:13:30;4.70;;;3.10;;
6638;SDS011;3355;52.882;8.430;2023-03-12T09:15:58;6.10;;;3.10;;
6638;SDS011;3355;52.882;8.430;2023-03-12T09:18:27;4.60;;;2.60;;
6638;SDS011;3355;52.882;8.430;2023-03-12T09:20:55;3.53;;;3.00;;
6638;SDS011;3355;52.882;8.430;2023-03-12T09:23:22;5.30;;;3.30;;
6638;SDS011;3355;52.882;8.430;2023-03-12T09:25:49;6.30;;;3.10;;
6638;SDS011;3355;52.882;8.430;2023-03-12T09:28:16;5.20;;;2.40;;
6638;SDS011;3355;52.882;8.430;2023-03-12T09:30:43;3.93;;;2.60;;
6638;SDS011;3355;52.882;8.430;2023-03-12T09:33:10;5.83;;;3.20;;
6638;SDS011;3355;52.882;8.430;2023-03-12T09:35:40;4.60;;;2.63;;
6638;SDS011;3355;52.882;8.430;2023-03-12T09:38:08;6.33;;;2.67;;
6638;SDS011;3355;52.882;8.430;2023-03-12T09:40:38;3.70;;;2.40;;
6638;SDS011;3355;52.882;8.430;2023-03-12T09:43:06;10.00;;;3.30;;
6638;SDS011;3355;52.882;8.430;2023-03-12T09:45:37;4.77;;;2.73;;
6638;SDS011;3355;52.882;8.430;2023-03-12T09:48:05;3.80;;;2.70;;
6638;SDS011;3355;52.882;8.430;2023-03-12T09:50:33;4.37;;;2.93;;
6638;SDS011;3355;52.882;8.430;2023-03-12T09:53:08;3.20;;;2.47;;
6638;SDS011;3355;52.882;8.430;2023-03-12T09:55:38;7.40;;;2.57;;
6638;SDS011;3355;52.882;8.430;2023-03-12T09:58:09;4.53;;;2.80;;
6638;SDS011;3355;52.882;8.430;2023-03-12T10:00:38;4.40;;;2.93;;
6638;SDS011;3355;52.882;8.430;2023-03-12T10:03:26;6.30;;;2.43;;
6638;SDS011;3355;52.882;8.430;2023-03-12T10:06:05;8.30;;;3.70;;
6638;SDS011;3355;52.882;8.430;2023-03-12T10:08:38;3.83;;;2.20;;
6638;SDS011;3355;52.882;8.430;2023-03-12T10:11:14;4.27;;;2.57;;
6638;SDS011;3355;52.882;8.430;2023-03-12T10:13:49;3.47;;;2.20;;
6638;SDS011;3355;52.882;8.430;2023-03-12T10:16:27;3.57;;;2.20;;
6638;SDS011;3355;52.882;8.430;2023-03-12T10:19:02;5.03;;;2.67;;
6638;SDS011;3355;52.882;8.430;2023-03-12T10:21:36;4.17;;;2.20;;
6638;SDS011;3355;52.882;8.430;2023-03-12T10:24:17;6.50;;;2.30;;
6638;SDS011;3355;52.882;8.430;2023-03-12T10:26:48;3.97;;;2.17;;
6638;SDS011;3355;52.882;8.430;2023-03-12T10:29:16;4.97;;;2.30;;
6638;SDS011;3355;52.882;8.430;2023-03-12T10:31:50;5.07;;;2.27;;
6638;SDS011;3355;52.882;8.430;2023-03-12T10:34:20;3.63;;;2.40;;
6638;SDS011;3355;52.882;8.430;2023-03-12T10:36:50;6.00;;;2.93;;
6638;SDS011;3355;52.882;8.430;2023-03-12T10:39:18;3.37;;;2.63;;
6638;SDS011;3355;52.882;8.430;2023-03-12T10:41:46;3.70;;;2.23;;
6638;SDS011;3355;52.882;8.430;2023-03-12T10:44:15;6.70;;;2.73;;
6638;SDS011;3355;52.882;8.430;2023-03-12T10:46:47;5.40;;;2.43;;
6638;SDS011;3355;52.882;8.430;2023-03-12T10:49:31;4.83;;;2.90;;
6638;SDS011;3355;52.882;8.430;2023-03-12T10:52:02;6.00;;;3.07;;
6638;SDS011;3355;52.882;8.430;2023-03-12T10:54:36;5.00;;;3.40;;
6638;SDS011;3355;52.882;8.430;2023-03-12T10:57:05;4.43;;;2.80;;
6638;SDS011;3355;52.882;8.430;2023-03-12T10:59:33;5.80;;;3.23;;
6638;SDS011;3355;52.882;8.430;2023-03-12T11:02:01;4.27;;;2.87;;
6638;SDS011;3355;52.882;8.430;2023-03-12T11:04:29;5.60;;;3.50;;
6638;SDS011;3355;52.882;8.430;2023-03-12T11:07:04;5.30;;;2.80;;
6638;SDS011;3355;52.882;8.430;2023-03-12T11:09:32;4.70;;;3.60;;
6638;SDS011;3355;52.882;8.430;2023-03-12T11:12:01;3.93;;;2.90;;
6638;SDS011;3355;52.882;8.430;2023-03-12T11:14:28;5.30;;;3.03;;
6638;SDS011;3355;52.882;8.430;2023-03-12T11:16:55;4.23;;;3.20;;
6638;SDS011;3355;52.882;8.430;2023-03-12T11:19:25;5.13;;;3.23;;
6638;SDS011;3355;52.882;8.430;2023-03-12T11:21:54;4.53;;;3.33;;
6638;SDS011;3355;52.882;8.430;2023-03-12T11:24:22;6.10;;;3.70;;
6638;SDS011;3355;52.882;8.430;2023-03-12T11:26:49;8.13;;;2.90;;
6638;SDS011;3355;52.882;8.430;2023-03-12T11:29:23;6.07;;;2.93;;
6638;SDS011;3355;52.882;8.430;2023-03-12T11:31:56;5.80;;;3.40;;
6638;SDS011;3355;52.882;8.430;2023-03-12T11:34:27;5.33;;;2.80;;
6638;SDS011;3355;52.882;8.430;2023-03-12T11:36:58;4.20;;;3.20;;
6638;SDS011;3355;52.882;8.430;2023-03-12T11:39:36;7.07;;;3.40;;
6638;SDS011;3355;52.882;8.430;2023-03-12T11:42:15;8.57;;;3.67;;
6638;SDS011;3355;52.882;8.430;2023-03-12T11:44:52;6.30;;;3.27;;
6638;SDS011;3355;52.882;8.430;2023-03-12T11:47:26;5.20;;;3.50;;
6638;SDS011;3355;52.882;8.430;2023-03-12T11:50:07;5.53;;;3.50;;
6638;SDS011;3355;52.882;8.430;2023-03-12T11:52:45;6.70;;;3.13;;
6638;SDS011;3355;52.882;8.430;2023-03-12T11:55:21;5.13;;;2.97;;
6638;SDS011;3355;52.882;8.430;2023-03-12T11:58:07;5.20;;;3.20;;
6638;SDS011;3355;52.882;8.430;2023-03-12T12:00:53;5.10;;;3.40;;
6638;SDS011;3355;52.882;8.430;2023-03-12T12:03:28;5.27;;;3.37;;
6638;SDS011;3355;52.882;8.430;2023-03-12T12:06:01;4.60;;;3.23;;
6638;SDS011;3355;52.882;8.430;2023-03-12T12:08:40;6.63;;;3.70;;
6638;SDS011;3355;52.882;8.430;2023-03-12T12:11:18;4.37;;;3.33;;
6638;SDS011;3355;52.882;8.430;2023-03-12T12:13:55;5.47;;;3.40;;
6638;SDS011;3355;52.882;8.430;2023-03-12T12:16:33;4.73;;;3.20;;
6638;SDS011;3355;52.882;8.430;2023-03-12T12:19:10;7.10;;;3.67;;
6638;SDS011;3355;52.882;8.430;2023-03-12T12:21:47;4.20;;;3.40;;
6638;SDS011;3355;52.882;8.430;2023-03-12T12:24:25;4.30;;;3.87;;
6638;SDS011;3355;52.882;8.430;2023-03-12T12:26:58;5.03;;;4.10;;
6638;SDS011;3355;52.882;8.430;2023-03-12T12:29:30;6.70;;;4.10;;
6638;SDS011;3355;52.882;8.430;2023-03-12T12:32:06;7.10;;;4.67;;
6638;SDS011;3355;52.882;8.430;2023-03-12T12:37:42;4.90;;;3.73;;
6638;SDS011;3355;52.882;8.430;2023-03-12T12:40:14;5.00;;;3.93;;
6638;SDS011;3355;52.882;8.430;2023-03-12T12:42:48;4.53;;;3.60;;
6638;SDS011;3355;52.882;8.430;2023-03-12T12:45:18;5.50;;;3.70;;
6638;SDS011;3355;52.882;8.430;2023-03-12T12:47:52;4.50;;;3.53;;
6638;SDS011;3355;52.882;8.430;2023-03-12T12:50:21;5.40;;;3.93;;
6638;SDS011;3355;52.882;8.430;2023-03-12T12:52:51;6.40;;;4.20;;
6638;SDS011;3355;52.882;8.430;2023-03-12T12:55:21;4.90;;;4.00;;
6638;SDS011;3355;52.882;8.430;2023-03-12T12:57:53;7.23;;;4.93;;
6638;SDS011;3355;52.882;8.430;2023-03-12T13:00:30;6.53;;;4.73;;
6638;SDS011;3355;52.882;8.430;2023-03-12T13:03:10;4.10;;;3.60;;
6638;SDS011;3355;52.882;8.430;2023-03-12T13:05:40;6.17;;;4.63;;
6638;SDS011;3355;52.882;8.430;2023-03-12T13:08:34;5.57;;;4.27;;
6638;SDS011;3355;52.882;8.430;2023-03-12T13:11:22;5.70;;;4.00;;
6638;SDS011;3355;52.882;8.430;2023-03-12T13:14:10;4.43;;;3.47;;
6638;SDS011;3355;52.882;8.430;2023-03-12T13:17:04;5.67;;;4.43;;
6638;SDS011;3355;52.882;8.430;2023-03-12T13:19:48;6.27;;;4.60;;
6638;SDS011;3355;52.882;8.430;2023-03-12T13:22:19;5.70;;;4.60;;
6638;SDS011;3355;52.882;8.430;2023-03-12T13:24:56;5.57;;;4.27;;
6638;SDS011;3355;52.882;8.430;2023-03-12T13:27:30;7.17;;;5.70;;
6638;SDS011;3355;52.882;8.430;2023-03-12T13:29:59;5.90;;;4.90;;
6638;SDS011;3355;52.882;8.430;2023-03-12T13:33:03;7.70;;;4.80;;
6638;SDS011;3355;52.882;8.430;2023-03-12T13:35:36;5.60;;;4.93;;
6638;SDS011;3355;52.882;8.430;2023-03-12T13:38:05;6.53;;;5.40;;
6638;SDS011;3355;52.882;8.430;2023-03-12T13:40:52;6.53;;;5.60;;
6638;SDS011;3355;52.882;8.430;2023-03-12T13:43:30;5.67;;;5.03;;
6638;SDS011;3355;52.882;8.430;2023-03-12T13:46:19;6.67;;;6.00;;
6638;SDS011;3355;52.882;8.430;2023-03-12T13:48:53;8.97;;;5.90;;
6638;SDS011;3355;52.882;8.430;2023-03-12T13:51:24;6.43;;;5.17;;
6638;SDS011;3355;52.882;8.430;2023-03-12T13:53:52;8.17;;;6.40;;
6638;SDS011;3355;52.882;8.430;2023-03-12T13:56:23;7.87;;;5.97;;
6638;SDS011;3355;52.882;8.430;2023-03-12T13:58:54;8.57;;;6.43;;
6638;SDS011;3355;52.882;8.430;2023-03-12T14:01:25;8.17;;;6.10;;
6638;SDS011;3355;52.882;8.430;2023-03-12T14:03:54;8.07;;;6.70;;
6638;SDS011;3355;52.882;8.430;2023-03-12T14:06:23;8.80;;;7.00;;
6638;SDS011;3355;52.882;8.430;2023-03-12T14:08:56;9.20;;;7.40;;
6638;SDS011;3355;52.882;8.430;2023-03-12T14:11:38;10.70;;;7.07;;
6638;SDS011;3355;52.882;8.430;2023-03-12T14:14:16;7.97;;;6.47;;
6638;SDS011;3355;52.882;8.430;2023-03-12T14:17:11;8.93;;;7.40;;
6638;SDS011;3355;52.882;8.430;2023-03-12T14:19:41;10.57;;;7.90;;
6638;SDS011;3355;52.882;8.430;2023-03-12T14:22:11;11.90;;;8.57;;
6638;SDS011;3355;52.882;8.430;2023-03-12T14:24:40;11.63;;;9.17;;
6638;SDS011;3355;52.882;8.430;2023-03-12T14:27:13;9.17;;;8.17;;
6638;SDS011;3355;52.882;8.430;2023-03-12T14:29:45;10.20;;;8.77;;
6638;SDS011;3355;52.882;8.430;2023-03-12T14:32:18;14.20;;;9.00;;
6638;SDS011;3355;52.882;8.430;2023-03-12T14:34:48;11.53;;;8.63;;
6638;SDS011;3355;52.882;8.430;2023-03-12T14:37:18;11.80;;;9.23;;
6638;SDS011;3355;52.882;8.430;2023-03-12T14:39:48;9.90;;;8.33;;
6638;SDS011;3355;52.882;8.430;2023-03-12T14:42:23;12.77;;;9.80;;
6638;SDS011;3355;52.882;8.430;2023-03-12T14:44:54;10.20;;;8.60;;
6638;SDS011;3355;52.882;8.430;2023-03-12T14:47:24;11.23;;;8.53;;
6638;SDS011;3355;52.882;8.430;2023-03-12T14:49:51;11.37;;;8.63;;
6638;SDS011;3355;52.882;8.430;2023-03-12T14:52:21;11.93;;;9.43;;
6638;SDS011;3355;52.882;8.430;2023-03-12T14:54:53;10.50;;;8.87;;
6638;SDS011;3355;52.882;8.430;2023-03-12T14:57:20;10.20;;;7.80;;
6638;SDS011;3355;52.882;8.430;2023-03-12T14:59:50;12.33;;;8.97;;
6638;SDS011;3355;52.882;8.430;2023-03-12T15:02:18;11.63;;;9.50;;
6638;SDS011;3355;52.882;8.430;2023-03-12T15:04:47;12.90;;;9.93;;
6638;SDS011;3355;52.882;8.430;2023-03-12T15:07:15;13.47;;;10.00;;
6638;SDS011;3355;52.882;8.430;2023-03-12T15:09:44;12.63;;;10.80;;
6638;SDS011;3355;52.882;8.430;2023-03-12T15:12:17;16.03;;;10.03;;
6638;SDS011;3355;52.882;8.430;2023-03-12T15:14:44;15.63;;;9.23;;
6638;SDS011;3355;52.882;8.430;2023-03-12T15:17:11;14.10;;;10.63;;
6638;SDS011;3355;52.882;8.430;2023-03-12T15:19:41;14.00;;;10.07;;
6638;SDS011;3355;52.882;8.430;2023-03-12T15:22:10;16.50;;;11.30;;
6638;SDS011;3355;52.882;8.430;2023-03-12T15:24:39;16.30;;;11.30;;
6638;SDS011;3355;52.882;8.430;2023-03-12T15:27:20;16.40;;;12.27;;
6638;SDS011;3355;52.882;8.430;2023-03-12T15:29:54;19.80;;;14.43;;
6638;SDS011;3355;52.882;8.430;2023-03-12T15:32:22;19.67;;;13.73;;